Terminal Aerodrome Forecast
Issued by NWS

Home | Current Version | Previous Version | Text Only | Print | Product List | Glossary On
Versions: 1 2 3 4 5 6 7 8 9 10 11 12 13 14 15 16 17 18 19 20 21 22 23
560
FTUS43 KDLH 240711 AAA
TAFBRD
TAF AMD
KBRD 240711Z 2407/2506 00000KT P6SM OVC012
      TEMPO 2408/2411 5SM -FZDZ BR OVC008
     FM241100 23003KT 6SM BR OVC007
     FM241600 21005KT P6SM OVC020
     FM250000 VRB03KT P6SM OVC015=

USA.gov is the U.S. government's official web portal to all federal, state and local government web resources and services.